createdAt,value
2018-07-11T00:01:54.095Z,17.00
2018-07-11T00:04:22.263Z,17.10
2018-07-11T00:06:50.445Z,17.20
2018-07-11T00:09:18.626Z,17.10
2018-07-11T00:11:46.855Z,17.10
2018-07-11T00:14:15.060Z,17.20
2018-07-11T00:16:48.606Z,17.20
2018-07-11T00:19:16.809Z,17.20
2018-07-11T00:21:44.998Z,17.20
2018-07-11T00:24:13.209Z,17.20
2018-07-11T00:26:41.396Z,17.10
2018-07-11T00:29:09.551Z,17.20
2018-07-11T00:31:37.749Z,17.30
2018-07-11T00:34:05.937Z,17.30
2018-07-11T00:36:34.093Z,17.30
2018-07-11T00:39:02.273Z,17.20
2018-07-11T00:58:52.021Z,17.30
2018-07-11T01:01:20.599Z,17.00
2018-07-11T01:03:57.122Z,17.20
2018-07-11T01:06:25.341Z,17.20
2018-07-11T01:08:54.137Z,17.10
2018-07-11T01:11:23.244Z,17.20
2018-07-11T01:13:51.553Z,17.20
2018-07-11T01:16:20.436Z,17.10
2018-07-11T01:18:55.910Z,17.00
2018-07-11T01:21:24.091Z,17.10
2018-07-11T01:23:52.291Z,17.20
2018-07-11T01:26:24.352Z,17.20
2018-07-11T01:28:52.651Z,17.10
2018-07-11T01:33:48.960Z,17.20
2018-07-11T01:36:17.212Z,17.20
2018-07-11T01:38:45.602Z,17.00
2018-07-11T01:41:14.004Z,17.10
2018-07-11T01:43:42.434Z,17.00
2018-07-11T01:46:10.635Z,17.20
2018-07-11T01:48:38.806Z,17.00
2018-07-11T01:51:07.054Z,17.20
2018-07-11T01:53:35.238Z,17.10
2018-07-11T01:56:03.432Z,17.00
2018-07-11T01:58:31.680Z,17.00
2018-07-11T02:03:27.889Z,17.10
2018-07-11T02:05:56.120Z,17.10
2018-07-11T02:08:24.843Z,17.10
2018-07-11T02:10:53.155Z,17.20
2018-07-11T02:13:21.367Z,17.10
2018-07-11T02:15:50.265Z,17.10
2018-07-11T02:18:24.355Z,17.20
2018-07-11T02:20:52.863Z,17.10
2018-07-11T02:23:21.172Z,17.10
2018-07-11T02:25:49.658Z,17.20
2018-07-11T02:28:17.917Z,17.30
2018-07-11T02:30:46.194Z,17.30
2018-07-11T02:33:14.399Z,17.20
2018-07-11T02:35:42.627Z,17.20
2018-07-11T02:38:10.832Z,17.20
2018-07-11T02:43:06.986Z,17.10
2018-07-11T02:45:35.215Z,17.10
2018-07-11T02:48:03.454Z,17.10
2018-07-11T02:50:31.676Z,17.10
2018-07-11T02:53:00.364Z,17.20
2018-07-11T02:55:28.627Z,17.20
2018-07-11T02:57:56.874Z,17.30
2018-07-11T03:00:25.137Z,17.20
2018-07-11T03:02:53.366Z,17.20
2018-07-11T03:05:21.612Z,17.10
2018-07-11T03:10:17.816Z,17.00
2018-07-11T03:12:46.056Z,16.90
2018-07-11T03:15:14.326Z,16.90
2018-07-11T03:17:42.609Z,16.90
2018-07-11T03:22:38.795Z,16.70
2018-07-11T03:25:07.024Z,16.80
2018-07-11T03:27:35.237Z,16.90
2018-07-11T03:30:03.480Z,16.80
2018-07-11T03:32:31.757Z,16.80
2018-07-11T03:34:59.989Z,16.90
2018-07-11T03:37:28.228Z,16.90
2018-07-11T03:39:56.489Z,16.80
2018-07-11T03:42:24.743Z,16.80
2018-07-11T03:44:53.003Z,16.90
2018-07-11T03:47:21.218Z,16.80
2018-07-11T03:49:49.472Z,16.70
2018-07-11T03:52:17.698Z,16.70
2018-07-11T03:54:45.932Z,16.80
2018-07-11T03:57:14.173Z,16.80
2018-07-11T03:59:42.362Z,16.80
2018-07-11T04:04:38.544Z,16.70
2018-07-11T04:07:06.746Z,16.80
2018-07-11T04:09:34.976Z,16.70
2018-07-11T04:14:31.179Z,16.70
2018-07-11T04:16:59.421Z,16.70
2018-07-11T04:19:27.650Z,16.70
2018-07-11T04:21:55.850Z,16.70
2018-07-11T04:24:24.081Z,16.50
2018-07-11T04:26:52.330Z,16.60
2018-07-11T04:29:20.557Z,16.70
2018-07-11T04:31:48.790Z,16.60
2018-07-11T04:36:44.977Z,16.90
2018-07-11T04:39:13.193Z,16.80
2018-07-11T04:41:41.522Z,16.70
2018-07-11T04:44:09.816Z,16.60
2018-07-11T04:46:38.048Z,16.70
2018-07-11T04:49:06.258Z,16.40
2018-07-11T04:51:34.649Z,16.70
2018-07-11T04:54:02.835Z,16.80
2018-07-11T04:56:31.402Z,16.60
2018-07-11T04:58:59.654Z,16.60
2018-07-11T05:01:27.871Z,16.40
2018-07-11T05:03:56.114Z,16.40
2018-07-11T05:06:24.366Z,16.40
2018-07-11T05:08:52.605Z,16.50
2018-07-11T05:11:20.847Z,16.50
2018-07-11T05:13:49.086Z,16.50
2018-07-11T05:16:17.511Z,16.60
2018-07-11T05:18:45.620Z,16.70
2018-07-11T05:23:41.827Z,16.70
2018-07-11T05:26:10.052Z,16.70
2018-07-11T05:31:06.277Z,16.70
2018-07-11T05:33:34.521Z,16.80
2018-07-11T05:36:02.755Z,16.80
2018-07-11T05:38:30.991Z,16.70
2018-07-11T05:40:59.464Z,16.80
2018-07-11T05:43:27.750Z,16.90
2018-07-11T05:45:55.980Z,16.80
2018-07-11T05:48:24.428Z,16.70
2018-07-11T05:50:52.649Z,16.50
2018-07-11T05:53:20.899Z,16.70
2018-07-11T05:55:49.236Z,16.80
2018-07-11T05:58:17.420Z,16.50
2018-07-11T06:00:45.626Z,16.50
2018-07-11T06:03:13.892Z,16.60
2018-07-11T06:05:42.484Z,16.70
2018-07-11T06:08:10.768Z,16.70
2018-07-11T06:10:39.039Z,16.90
2018-07-11T06:13:07.353Z,16.90
2018-07-11T06:15:35.603Z,16.60
2018-07-11T06:18:03.888Z,16.70
2018-07-11T06:20:32.779Z,16.60
2018-07-11T06:23:01.009Z,16.90
2018-07-11T06:25:29.237Z,17.00
2018-07-11T06:27:57.542Z,16.90
2018-07-11T06:30:25.727Z,16.60
2018-07-11T06:32:53.975Z,16.70
2018-07-11T06:35:22.205Z,16.90
2018-07-11T06:37:50.559Z,16.60
2018-07-11T06:40:18.801Z,16.70
2018-07-11T06:42:47.043Z,16.60
2018-07-11T06:45:15.286Z,16.70
2018-07-11T06:47:43.517Z,16.60
2018-07-11T06:50:11.812Z,16.90
2018-07-11T06:52:40.075Z,17.10
2018-07-11T06:55:08.620Z,17.30
2018-07-11T06:57:36.924Z,17.40
2018-07-11T07:00:05.092Z,17.40
2018-07-11T07:02:33.357Z,17.60
2018-07-11T07:05:01.598Z,17.50
2018-07-11T07:07:29.793Z,17.50
2018-07-11T07:09:58.020Z,17.50
2018-07-11T07:12:26.246Z,17.40
2018-07-11T07:14:54.455Z,17.40
2018-07-11T07:17:22.664Z,17.40
2018-07-11T07:19:50.864Z,17.30
2018-07-11T07:22:19.061Z,17.50
2018-07-11T07:27:15.266Z,18.10
2018-07-11T07:29:43.499Z,17.70
2018-07-11T07:32:11.701Z,17.40
2018-07-11T07:34:40.036Z,17.30
2018-07-11T07:37:08.191Z,17.70
2018-07-11T07:39:36.393Z,17.60
2018-07-11T07:42:04.647Z,17.60
2018-07-11T07:44:32.852Z,17.80
2018-07-11T07:47:01.674Z,18.00
2018-07-11T07:49:31.194Z,17.90
2018-07-11T07:51:59.763Z,17.90
2018-07-11T07:56:56.909Z,18.30
2018-07-11T07:59:25.948Z,17.90
2018-07-11T08:01:54.207Z,18.00
2018-07-11T08:06:50.625Z,17.90
2018-07-11T08:09:18.918Z,17.90
2018-07-11T08:11:47.575Z,18.00
2018-07-11T08:14:15.840Z,18.10
2018-07-11T08:16:44.160Z,18.30
2018-07-11T08:19:12.401Z,18.50
2018-07-11T08:21:40.981Z,18.20
2018-07-11T08:26:54.172Z,18.20
2018-07-11T08:29:33.776Z,18.30
2018-07-11T08:32:40.515Z,17.90
2018-07-11T08:38:30.068Z,18.60
2018-07-11T08:41:08.422Z,18.60
2018-07-11T08:43:46.955Z,18.10
2018-07-11T08:46:28.093Z,18.10
2018-07-11T08:51:16.641Z,18.60
2018-07-11T08:54:56.658Z,18.60
2018-07-11T09:00:12.654Z,19.00
2018-07-11T09:05:07.082Z,18.50
2018-07-11T09:07:52.203Z,19.10
2018-07-11T09:11:27.759Z,19.20
2018-07-11T09:14:20.589Z,18.70
2018-07-11T09:19:01.441Z,19.20
2018-07-11T09:22:41.940Z,19.20
2018-07-11T09:25:10.566Z,18.70
2018-07-11T09:27:38.787Z,19.00
2018-07-11T09:30:07.007Z,19.40
2018-07-11T09:32:35.236Z,19.50
2018-07-11T09:35:03.426Z,19.70
2018-07-11T09:37:31.691Z,20.00
2018-07-11T09:39:59.899Z,20.10
2018-07-11T09:42:28.107Z,20.10
2018-07-11T09:44:56.331Z,19.90
2018-07-11T09:47:29.208Z,19.40
2018-07-11T09:49:57.693Z,19.20
2018-07-11T09:52:25.932Z,19.10
2018-07-11T09:57:22.216Z,19.20
2018-07-11T09:59:50.421Z,19.10
2018-07-11T10:02:18.676Z,19.50
2018-07-11T10:04:46.923Z,19.40
2018-07-11T10:09:43.093Z,19.70
2018-07-11T10:12:11.336Z,19.60
2018-07-11T10:14:39.557Z,19.80
2018-07-11T10:17:07.795Z,20.20
2018-07-11T10:19:36.019Z,19.90
2018-07-11T10:22:04.231Z,20.00
2018-07-11T10:24:32.443Z,20.20
2018-07-11T10:27:01.152Z,20.30
2018-07-11T10:34:25.310Z,20.60
2018-07-11T10:36:53.537Z,20.80
2018-07-11T10:39:21.755Z,20.60
2018-07-11T10:41:49.989Z,20.50
2018-07-11T10:44:18.227Z,21.00
2018-07-11T10:46:46.431Z,20.90
2018-07-11T10:51:42.720Z,20.70
2018-07-11T10:54:10.956Z,20.50
2018-07-11T10:56:39.208Z,20.50
2018-07-11T10:59:07.451Z,20.50
2018-07-11T11:01:36.057Z,20.90
2018-07-11T11:04:04.282Z,20.50
2018-07-11T11:06:32.589Z,20.30
2018-07-11T11:09:00.857Z,20.10
2018-07-11T11:11:29.083Z,20.10
2018-07-11T11:16:25.302Z,20.30
2018-07-11T11:18:53.572Z,20.50
2018-07-11T11:21:21.856Z,20.70
2018-07-11T11:23:50.094Z,20.30
2018-07-11T11:26:18.320Z,20.50
2018-07-11T11:28:46.576Z,20.70
2018-07-11T11:31:14.819Z,20.90
2018-07-11T11:36:11.019Z,21.30
2018-07-11T11:38:39.278Z,21.60
2018-07-11T11:41:07.620Z,21.50
2018-07-11T11:43:35.860Z,20.90
2018-07-11T11:46:04.148Z,21.30
2018-07-11T11:48:32.382Z,21.50
2018-07-11T11:53:28.613Z,22.20
2018-07-11T11:55:56.846Z,22.60
2018-07-11T11:58:25.105Z,21.60
2018-07-11T12:00:53.281Z,21.30
2018-07-11T12:03:21.496Z,21.60
2018-07-11T12:05:49.751Z,21.80
2018-07-11T12:08:17.981Z,21.80
2018-07-11T12:10:46.241Z,21.60
2018-07-11T12:13:14.434Z,21.70
2018-07-11T12:15:42.643Z,20.90
2018-07-11T12:18:10.861Z,20.50
2018-07-11T12:20:39.106Z,20.60
2018-07-11T12:23:07.325Z,20.40
2018-07-11T12:25:35.539Z,20.50
2018-07-11T12:28:03.813Z,21.00
2018-07-11T12:30:32.086Z,21.30
2018-07-11T12:33:00.315Z,21.10
2018-07-11T12:35:28.570Z,21.10
2018-07-11T12:37:56.861Z,20.90
2018-07-11T12:40:25.147Z,21.20
2018-07-11T12:42:53.372Z,21.60
2018-07-11T12:45:21.588Z,21.80
2018-07-11T12:47:55.226Z,22.10
2018-07-11T12:52:51.439Z,22.40
2018-07-11T12:55:19.716Z,22.00
2018-07-11T12:57:47.944Z,22.30
2018-07-11T13:00:16.378Z,21.90
2018-07-11T13:02:45.320Z,21.90
2018-07-11T13:05:13.556Z,22.00
2018-07-11T13:07:41.823Z,22.40
2018-07-11T13:10:10.911Z,23.30
2018-07-11T13:12:39.140Z,23.30
2018-07-11T13:15:07.357Z,23.00
2018-07-11T13:17:35.671Z,22.70
2018-07-11T13:20:03.926Z,23.00
2018-07-11T13:22:32.160Z,23.60
2018-07-11T13:25:00.382Z,23.80
2018-07-11T13:27:28.603Z,23.20
2018-07-11T13:29:56.825Z,24.00
2018-07-11T13:32:26.845Z,23.90
2018-07-11T13:34:56.045Z,23.40
2018-07-11T13:39:52.272Z,22.50
2018-07-11T13:42:20.485Z,23.00
2018-07-11T13:44:48.714Z,23.90
2018-07-11T13:47:22.399Z,25.00
2018-07-11T13:49:50.626Z,23.70
2018-07-11T13:52:18.897Z,24.10
2018-07-11T13:54:47.172Z,24.90
2018-07-11T13:57:15.894Z,24.40
2018-07-11T14:02:12.057Z,23.50
2018-07-11T14:04:40.278Z,23.70
2018-07-11T14:07:08.516Z,23.30
2018-07-11T14:09:36.702Z,24.10
2018-07-11T14:12:04.922Z,24.70
2018-07-11T14:14:33.147Z,25.40
2018-07-11T14:19:29.632Z,24.50
2018-07-11T14:21:57.854Z,24.30
2018-07-11T14:24:27.091Z,24.40
2018-07-11T14:29:26.428Z,24.50
2018-07-11T14:31:54.699Z,24.50
2018-07-11T14:34:22.931Z,24.60
2018-07-11T14:36:51.183Z,24.10
2018-07-11T14:39:19.394Z,23.90
2018-07-11T14:41:47.614Z,22.60
2018-07-11T14:44:16.295Z,22.10
2018-07-11T14:46:44.509Z,22.40
2018-07-11T14:49:14.926Z,22.80
2018-07-11T14:51:43.208Z,23.10
2018-07-11T14:54:11.438Z,22.90
2018-07-11T14:56:39.717Z,23.00
2018-07-11T14:59:07.962Z,22.80
2018-07-11T15:01:36.208Z,22.60
2018-07-11T15:04:04.483Z,22.40
2018-07-11T15:06:32.738Z,22.90
2018-07-11T15:09:01.107Z,23.10
2018-07-11T15:11:29.264Z,23.00
2018-07-11T15:13:57.519Z,23.10
2018-07-11T15:16:25.744Z,23.00
2018-07-11T15:21:29.349Z,23.10
2018-07-11T15:23:57.578Z,22.60
2018-07-11T15:26:26.125Z,22.60
2018-07-11T15:28:54.599Z,23.80
2018-07-11T15:31:23.221Z,24.30
2018-07-11T15:33:51.750Z,24.40
2018-07-11T15:36:20.012Z,23.70
2018-07-11T15:38:48.260Z,24.10
2018-07-11T15:41:17.159Z,23.90
2018-07-11T15:43:46.334Z,23.90
2018-07-11T15:46:14.603Z,23.90
2018-07-11T15:48:42.875Z,24.50
2018-07-11T15:51:11.143Z,23.90
2018-07-11T15:53:39.397Z,23.60
2018-07-11T15:56:07.616Z,23.80
2018-07-11T15:58:37.136Z,24.60
2018-07-11T16:01:07.768Z,25.00
2018-07-11T16:03:37.285Z,24.70
2018-07-11T16:06:07.180Z,23.80
2018-07-11T16:11:03.801Z,23.90
2018-07-11T16:13:32.460Z,23.50
2018-07-11T16:16:00.670Z,23.50
2018-07-11T16:18:29.213Z,23.10
2018-07-11T16:20:57.413Z,24.20
2018-07-11T16:23:25.623Z,24.20
2018-07-11T16:25:53.843Z,23.80
2018-07-11T16:30:50.019Z,23.60
2018-07-11T16:33:18.226Z,23.30
2018-07-11T16:35:46.450Z,23.50
2018-07-11T16:38:14.686Z,23.80
2018-07-11T16:40:42.937Z,23.20
2018-07-11T16:43:11.169Z,24.10
2018-07-11T16:45:39.397Z,23.70
2018-07-11T16:48:07.602Z,24.20
2018-07-11T16:50:35.820Z,23.30
2018-07-11T16:53:04.039Z,23.20
2018-07-11T16:55:33.529Z,23.70
2018-07-11T16:58:01.813Z,23.30
2018-07-11T17:00:31.515Z,23.50
2018-07-11T17:03:05.690Z,24.10
2018-07-11T17:05:40.084Z,24.30
2018-07-11T17:08:08.365Z,23.40
2018-07-11T17:10:39.528Z,23.30
2018-07-11T17:13:10.441Z,23.50
2018-07-11T17:15:39.313Z,23.80
2018-07-11T17:20:35.979Z,23.10
2018-07-11T17:23:05.783Z,23.60
2018-07-11T17:25:41.255Z,23.80
2018-07-11T17:28:09.500Z,23.50
2018-07-11T17:30:40.384Z,23.10
2018-07-11T17:33:09.657Z,23.20
2018-07-11T17:35:43.782Z,23.00
2018-07-11T17:38:12.027Z,23.00
2018-07-11T17:40:40.459Z,23.10
2018-07-11T17:43:10.368Z,23.00
2018-07-11T17:45:39.051Z,23.70
2018-07-11T17:51:45.301Z,23.60
2018-07-11T17:54:13.560Z,22.80
2018-07-11T17:56:48.810Z,22.60
2018-07-11T17:59:21.473Z,22.50
2018-07-11T18:01:51.193Z,22.40
2018-07-11T18:04:59.225Z,22.30
2018-07-11T18:07:37.901Z,22.10
2018-07-11T18:10:07.005Z,22.20
2018-07-11T18:12:40.809Z,21.80
2018-07-11T18:15:26.133Z,21.90
2018-07-11T18:18:01.987Z,22.10
2018-07-11T18:21:36.758Z,22.00
2018-07-11T18:24:13.277Z,21.70
2018-07-11T18:27:51.767Z,21.70
2018-07-11T18:32:32.939Z,21.70
2018-07-11T18:37:54.864Z,21.80
2018-07-11T18:40:52.408Z,21.70
2018-07-11T18:43:33.173Z,21.60
2018-07-11T18:46:13.784Z,21.50
2018-07-11T18:49:04.821Z,21.50
2018-07-11T18:51:43.376Z,21.50
2018-07-11T18:54:15.747Z,21.40
2018-07-11T18:56:55.848Z,21.30
2018-07-11T18:59:40.040Z,21.00
2018-07-11T19:02:14.011Z,20.90
2018-07-11T19:07:53.452Z,20.90
2018-07-11T19:10:32.193Z,20.90
2018-07-11T19:13:00.486Z,20.80
2018-07-11T19:15:52.822Z,20.80
2018-07-11T19:18:23.719Z,20.70
2018-07-11T19:21:02.354Z,20.70
2018-07-11T19:23:41.775Z,20.60
2018-07-11T19:26:20.696Z,20.60
2018-07-11T19:28:54.449Z,20.50
2018-07-11T19:31:33.981Z,20.50
2018-07-11T19:34:21.084Z,20.40
2018-07-11T19:36:59.690Z,20.40
2018-07-11T19:39:53.052Z,20.40
2018-07-11T19:42:35.495Z,20.30
2018-07-11T19:45:15.596Z,20.10
2018-07-11T19:47:57.098Z,20.00
2018-07-11T19:50:34.339Z,19.90
2018-07-11T19:55:19.852Z,19.90
2018-07-11T19:57:48.070Z,20.00
2018-07-11T20:00:16.320Z,19.90
2018-07-11T20:05:12.465Z,19.70
2018-07-11T20:07:40.694Z,19.60
2018-07-11T20:10:08.919Z,19.60
2018-07-11T20:12:37.136Z,19.60
2018-07-11T20:15:05.324Z,19.50
2018-07-11T20:17:33.543Z,19.60
2018-07-11T20:20:01.715Z,19.50
2018-07-11T20:22:29.912Z,19.40
2018-07-11T20:24:58.131Z,19.40
2018-07-11T20:27:26.323Z,19.30
2018-07-11T20:29:54.553Z,19.30
2018-07-11T20:32:22.756Z,19.00
2018-07-11T20:37:18.910Z,18.90
2018-07-11T20:39:47.133Z,18.90
2018-07-11T20:42:15.352Z,18.80
2018-07-11T20:44:43.560Z,18.80
2018-07-11T20:47:11.778Z,18.70
2018-07-11T20:49:40.001Z,18.50
2018-07-11T20:54:36.146Z,18.40
2018-07-11T20:57:04.316Z,18.50
2018-07-11T21:00:43.754Z,18.40
2018-07-11T21:03:23.264Z,18.40
2018-07-11T21:08:09.962Z,18.30
2018-07-11T21:10:55.668Z,18.50
2018-07-11T21:13:35.618Z,18.60
2018-07-11T21:17:16.085Z,18.70
2018-07-11T21:19:44.312Z,18.70
2018-07-11T21:22:12.502Z,18.10
2018-07-11T21:24:40.710Z,18.00
2018-07-11T21:27:08.922Z,18.00
2018-07-11T21:29:37.116Z,18.00
2018-07-11T21:32:05.524Z,18.10
2018-07-11T21:34:33.713Z,18.20
2018-07-11T21:37:01.905Z,18.20
2018-07-11T21:41:58.047Z,18.00
2018-07-11T21:44:26.243Z,17.80
2018-07-11T21:49:23.119Z,17.50
2018-07-11T21:51:51.689Z,17.40
2018-07-11T21:56:47.905Z,17.50
2018-07-11T21:59:16.212Z,17.50
2018-07-11T22:01:44.404Z,17.50
2018-07-11T22:04:12.605Z,17.50
2018-07-11T22:06:40.874Z,17.60
2018-07-11T22:11:37.029Z,17.90
2018-07-11T22:14:05.236Z,17.80
2018-07-11T22:16:33.401Z,17.70
2018-07-11T22:19:01.601Z,17.60
2018-07-11T22:21:28.809Z,17.30
2018-07-11T22:23:56.012Z,17.40
2018-07-11T22:26:23.240Z,17.40
2018-07-11T22:28:50.430Z,17.50
2018-07-11T22:31:17.632Z,17.50
2018-07-11T22:33:44.867Z,17.60
2018-07-11T22:36:12.059Z,17.60
2018-07-11T22:43:34.200Z,17.40
2018-07-11T22:46:01.405Z,17.30
2018-07-11T22:48:28.602Z,17.20
2018-07-11T22:50:55.796Z,17.20
2018-07-11T22:53:22.993Z,16.80
2018-07-11T22:55:50.226Z,16.90
2018-07-11T22:58:17.433Z,17.00
2018-07-11T23:00:44.670Z,17.10
2018-07-11T23:03:11.860Z,17.10
2018-07-11T23:05:39.076Z,17.20
2018-07-11T23:08:06.304Z,17.00
2018-07-11T23:10:33.464Z,16.90
2018-07-11T23:13:00.672Z,16.80
2018-07-11T23:15:27.884Z,16.80
2018-07-11T23:17:55.064Z,16.90
2018-07-11T23:20:22.315Z,16.90
2018-07-11T23:22:49.489Z,16.70
2018-07-11T23:25:16.709Z,16.60
2018-07-11T23:27:43.912Z,16.50
2018-07-11T23:30:11.099Z,16.60
2018-07-11T23:32:38.290Z,16.50
2018-07-11T23:35:05.503Z,16.50
2018-07-11T23:37:32.713Z,16.50
2018-07-11T23:39:59.913Z,16.50
2018-07-11T23:42:27.146Z,16.60
2018-07-11T23:44:54.345Z,16.70
2018-07-11T23:52:16.456Z,16.60
2018-07-11T23:54:43.636Z,16.60
2018-07-11T23:57:10.865Z,16.50
2018-07-11T23:59:38.061Z,16.50
